Cedar Crossing, Georgia
Current Conditions -  °F | °C
As of 8:15 AM on Friday 28 Nov 2014 (Local Time) from KVDI Reporting Station
Clear Clear  
Wind Chill: 28°   Ceiling: Unl
Heat Index: 34°   Visibility: 10mi
Dew Point: 32°   Wind: 7mph
Humidity: 93%   Direction: 350°N
Pressure: 30.39"   Gusts: NA
Location:  32.1105°N, 82.281°W
Report Text: KVDI 281315Z AUTO 35006KT 10SM CLR 01/00 A3039 RMK AO2
Loading
Personal Weather Stations






























Interactive Weather Map New forecast layout! Learn more

10-Day Weather Forecast

Advertisements
Track Severe Weather on mobile